sensor_id;sensor_type;location;lat;lon;timestamp;pressure;altitude;pressure_sealevel;temperature;humidity
64967;BME280;51710;38.732;-121.358;2023-04-01T00:01:00;101849.66;;;17.20;46.64
64967;BME280;51710;38.732;-121.358;2023-04-01T00:03:27;101857.56;;;17.21;46.90
64967;BME280;51710;38.732;-121.358;2023-04-01T00:05:54;101856.91;;;17.27;47.04
64967;BME280;51710;38.732;-121.358;2023-04-01T00:08:21;101849.13;;;17.32;47.06
64967;BME280;51710;38.732;-121.358;2023-04-01T00:10:48;101845.41;;;17.33;46.93
64967;BME280;51710;38.732;-121.358;2023-04-01T00:13:14;101841.72;;;17.34;46.16
64967;BME280;51710;38.732;-121.358;2023-04-01T00:15:42;101841.06;;;17.32;46.00
64967;BME280;51710;38.732;-121.358;2023-04-01T00:18:08;101834.16;;;17.30;46.32
64967;BME280;51710;38.732;-121.358;2023-04-01T00:20:34;101840.41;;;17.22;46.30
64967;BME280;51710;38.732;-121.358;2023-04-01T00:23:01;101837.72;;;17.22;46.45
64967;BME280;51710;38.732;-121.358;2023-04-01T00:25:27;101850.38;;;17.14;45.76
64967;BME280;51710;38.732;-121.358;2023-04-01T00:27:54;101846.03;;;17.05;46.39
64967;BME280;51710;38.732;-121.358;2023-04-01T00:30:20;101841.63;;;17.04;46.29
64967;BME280;51710;38.732;-121.358;2023-04-01T00:32:47;101845.34;;;16.95;46.19
64967;BME280;51710;38.732;-121.358;2023-04-01T00:35:17;101838.16;;;16.87;46.92
64967;BME280;51710;38.732;-121.358;2023-04-01T00:37:43;101847.38;;;16.93;47.27
64967;BME280;51710;38.732;-121.358;2023-04-01T00:40:24;101843.50;;;16.95;47.30
64967;BME280;51710;38.732;-121.358;2023-04-01T00:42:51;101843.31;;;16.97;46.60
64967;BME280;51710;38.732;-121.358;2023-04-01T00:45:33;101843.19;;;16.90;46.69
64967;BME280;51710;38.732;-121.358;2023-04-01T00:48:06;101839.66;;;16.81;47.52
64967;BME280;51710;38.732;-121.358;2023-04-01T00:50:34;101838.81;;;16.81;47.48
64967;BME280;51710;38.732;-121.358;2023-04-01T00:53:01;101837.50;;;16.77;47.63
64967;BME280;51710;38.732;-121.358;2023-04-01T00:55:30;101834.94;;;16.75;47.57
64967;BME280;51710;38.732;-121.358;2023-04-01T00:57:58;101836.81;;;16.67;47.51
64967;BME280;51710;38.732;-121.358;2023-04-01T01:00:26;101835.78;;;16.60;48.06
64967;BME280;51710;38.732;-121.358;2023-04-01T01:02:52;101824.22;;;16.51;48.10
64967;BME280;51710;38.732;-121.358;2023-04-01T01:05:26;101818.66;;;16.53;48.13
64967;BME280;51710;38.732;-121.358;2023-04-01T01:08:25;101815.81;;;16.54;48.14
64967;BME280;51710;38.732;-121.358;2023-04-01T01:10:57;101818.66;;;16.53;47.89
64967;BME280;51710;38.732;-121.358;2023-04-01T01:13:36;101836.97;;;16.49;48.06
64967;BME280;51710;38.732;-121.358;2023-04-01T01:16:12;101827.53;;;16.37;48.21
64967;BME280;51710;38.732;-121.358;2023-04-01T01:18:50;101836.13;;;16.33;48.45
64967;BME280;51710;38.732;-121.358;2023-04-01T01:24:22;101838.94;;;16.15;48.76
64967;BME280;51710;38.732;-121.358;2023-04-01T01:27:10;101848.84;;;16.07;49.06
64967;BME280;51710;38.732;-121.358;2023-04-01T01:35:43;101851.81;;;15.88;49.55
64967;BME280;51710;38.732;-121.358;2023-04-01T01:38:14;101851.78;;;15.79;49.77
64967;BME280;51710;38.732;-121.358;2023-04-01T01:40:45;101857.66;;;15.75;49.19
64967;BME280;51710;38.732;-121.358;2023-04-01T01:43:18;101858.16;;;15.70;49.13
64967;BME280;51710;38.732;-121.358;2023-04-01T01:45:50;101851.75;;;15.63;49.40
64967;BME280;51710;38.732;-121.358;2023-04-01T01:48:17;101860.09;;;15.60;50.01
64967;BME280;51710;38.732;-121.358;2023-04-01T01:50:45;101857.25;;;15.54;49.84
64967;BME280;51710;38.732;-121.358;2023-04-01T01:53:13;101859.25;;;15.52;50.15
64967;BME280;51710;38.732;-121.358;2023-04-01T01:55:43;101857.03;;;15.47;50.54
64967;BME280;51710;38.732;-121.358;2023-04-01T01:58:33;101862.22;;;15.41;50.52
64967;BME280;51710;38.732;-121.358;2023-04-01T02:01:12;101864.34;;;15.37;49.89
64967;BME280;51710;38.732;-121.358;2023-04-01T02:03:39;101868.00;;;15.28;49.87
64967;BME280;51710;38.732;-121.358;2023-04-01T02:06:10;101867.09;;;15.20;50.32
64967;BME280;51710;38.732;-121.358;2023-04-01T02:08:47;101867.72;;;15.14;51.03
64967;BME280;51710;38.732;-121.358;2023-04-01T02:11:19;101864.84;;;15.07;50.99
64967;BME280;51710;38.732;-121.358;2023-04-01T02:14:10;101860.25;;;15.00;51.08
64967;BME280;51710;38.732;-121.358;2023-04-01T02:16:45;101860.75;;;14.95;50.97
64967;BME280;51710;38.732;-121.358;2023-04-01T02:19:15;101862.38;;;14.88;51.26
64967;BME280;51710;38.732;-121.358;2023-04-01T02:21:53;101863.69;;;14.84;51.69
64967;BME280;51710;38.732;-121.358;2023-04-01T02:24:23;101860.63;;;14.79;51.88
64967;BME280;51710;38.732;-121.358;2023-04-01T02:26:51;101859.25;;;14.75;51.68
64967;BME280;51710;38.732;-121.358;2023-04-01T02:29:23;101858.19;;;14.68;51.88
64967;BME280;51710;38.732;-121.358;2023-04-01T02:31:52;101861.34;;;14.63;51.74
64967;BME280;51710;38.732;-121.358;2023-04-01T02:34:20;101854.44;;;14.61;51.98
64967;BME280;51710;38.732;-121.358;2023-04-01T02:36:48;101856.47;;;14.59;51.97
64967;BME280;51710;38.732;-121.358;2023-04-01T02:39:15;101845.50;;;14.52;52.61
64967;BME280;51710;38.732;-121.358;2023-04-01T02:41:44;101846.81;;;14.48;52.57
64967;BME280;51710;38.732;-121.358;2023-04-01T02:44:12;101847.97;;;14.46;52.96
64967;BME280;51710;38.732;-121.358;2023-04-01T02:46:39;101844.59;;;14.44;53.05
64967;BME280;51710;38.732;-121.358;2023-04-01T02:49:05;101845.59;;;14.43;53.00
64967;BME280;51710;38.732;-121.358;2023-04-01T02:51:32;101851.94;;;14.42;52.98
64967;BME280;51710;38.732;-121.358;2023-04-01T02:53:59;101858.47;;;14.39;53.17
64967;BME280;51710;38.732;-121.358;2023-04-01T02:56:26;101856.53;;;14.32;53.54
64967;BME280;51710;38.732;-121.358;2023-04-01T02:58:53;101857.41;;;14.23;53.89
64967;BME280;51710;38.732;-121.358;2023-04-01T03:01:20;101861.03;;;14.14;54.20
64967;BME280;51710;38.732;-121.358;2023-04-01T03:03:46;101868.28;;;14.04;54.18
64967;BME280;51710;38.732;-121.358;2023-04-01T03:06:14;101863.97;;;13.93;54.57
64967;BME280;51710;38.732;-121.358;2023-04-01T03:08:41;101867.44;;;13.86;55.08
64967;BME280;51710;38.732;-121.358;2023-04-01T03:11:08;101871.00;;;13.77;55.30
64967;BME280;51710;38.732;-121.358;2023-04-01T03:13:35;101883.44;;;13.68;55.53
64967;BME280;51710;38.732;-121.358;2023-04-01T03:16:02;101882.19;;;13.63;55.75
64967;BME280;51710;38.732;-121.358;2023-04-01T03:18:28;101880.81;;;13.58;56.01
64967;BME280;51710;38.732;-121.358;2023-04-01T03:20:55;101883.09;;;13.53;56.47
64967;BME280;51710;38.732;-121.358;2023-04-01T03:23:21;101884.34;;;13.49;56.99
64967;BME280;51710;38.732;-121.358;2023-04-01T03:25:50;101880.59;;;13.42;57.07
64967;BME280;51710;38.732;-121.358;2023-04-01T03:28:16;101883.16;;;13.34;57.24
64967;BME280;51710;38.732;-121.358;2023-04-01T03:30:42;101885.88;;;13.25;57.55
64967;BME280;51710;38.732;-121.358;2023-04-01T03:33:08;101885.59;;;13.18;58.13
64967;BME280;51710;38.732;-121.358;2023-04-01T03:35:35;101884.50;;;13.11;58.38
64967;BME280;51710;38.732;-121.358;2023-04-01T03:38:02;101881.41;;;13.06;58.47
64967;BME280;51710;38.732;-121.358;2023-04-01T03:40:28;101881.97;;;13.00;58.97
64967;BME280;51710;38.732;-121.358;2023-04-01T03:42:54;101880.00;;;12.93;58.92
64967;BME280;51710;38.732;-121.358;2023-04-01T03:45:21;101880.47;;;12.88;59.21
64967;BME280;51710;38.732;-121.358;2023-04-01T03:47:48;101885.81;;;12.88;59.23
64967;BME280;51710;38.732;-121.358;2023-04-01T03:50:14;101887.19;;;12.92;59.26
64967;BME280;51710;38.732;-121.358;2023-04-01T03:52:40;101891.81;;;12.90;59.08
64967;BME280;51710;38.732;-121.358;2023-04-01T03:55:07;101882.84;;;12.82;59.02
64967;BME280;51710;38.732;-121.358;2023-04-01T03:57:33;101895.66;;;12.78;59.26
64967;BME280;51710;38.732;-121.358;2023-04-01T04:00:00;101898.91;;;12.72;59.60
64967;BME280;51710;38.732;-121.358;2023-04-01T04:02:26;101910.16;;;12.66;59.74
64967;BME280;51710;38.732;-121.358;2023-04-01T04:04:52;101901.72;;;12.61;59.68
64967;BME280;51710;38.732;-121.358;2023-04-01T04:07:18;101902.28;;;12.55;60.20
64967;BME280;51710;38.732;-121.358;2023-04-01T04:09:44;101908.19;;;12.49;60.04
64967;BME280;51710;38.732;-121.358;2023-04-01T04:12:11;101908.72;;;12.43;60.22
64967;BME280;51710;38.732;-121.358;2023-04-01T04:14:37;101909.03;;;12.40;60.18
64967;BME280;51710;38.732;-121.358;2023-04-01T04:17:03;101900.59;;;12.35;60.66
64967;BME280;51710;38.732;-121.358;2023-04-01T04:19:32;101912.25;;;12.24;60.83
64967;BME280;51710;38.732;-121.358;2023-04-01T04:21:59;101910.69;;;12.12;61.03
64967;BME280;51710;38.732;-121.358;2023-04-01T04:24:27;101915.75;;;12.06;60.97
64967;BME280;51710;38.732;-121.358;2023-04-01T04:26:53;101917.97;;;12.01;61.64
64967;BME280;51710;38.732;-121.358;2023-04-01T04:29:19;101925.56;;;11.96;61.67
64967;BME280;51710;38.732;-121.358;2023-04-01T04:31:45;101920.47;;;11.93;61.61
64967;BME280;51710;38.732;-121.358;2023-04-01T04:34:12;101919.31;;;11.86;61.89
64967;BME280;51710;38.732;-121.358;2023-04-01T04:36:38;101922.41;;;11.81;62.19
64967;BME280;51710;38.732;-121.358;2023-04-01T04:39:04;101918.16;;;11.79;62.65
64967;BME280;51710;38.732;-121.358;2023-04-01T04:41:30;101919.31;;;11.76;62.36
64967;BME280;51710;38.732;-121.358;2023-04-01T04:43:57;101914.25;;;11.73;62.39
64967;BME280;51710;38.732;-121.358;2023-04-01T04:46:24;101924.34;;;11.70;63.30
64967;BME280;51710;38.732;-121.358;2023-04-01T04:48:50;101927.03;;;11.70;63.41
64967;BME280;51710;38.732;-121.358;2023-04-01T04:51:18;101928.25;;;11.66;63.67
64967;BME280;51710;38.732;-121.358;2023-04-01T04:53:47;101927.78;;;11.61;63.60
64967;BME280;51710;38.732;-121.358;2023-04-01T04:56:18;101925.38;;;11.58;63.61
64967;BME280;51710;38.732;-121.358;2023-04-01T04:58:45;101930.00;;;11.56;63.36
64967;BME280;51710;38.732;-121.358;2023-04-01T05:01:13;101929.53;;;11.51;63.97
64967;BME280;51710;38.732;-121.358;2023-04-01T05:03:41;101926.72;;;11.43;63.83
64967;BME280;51710;38.732;-121.358;2023-04-01T05:06:09;101922.88;;;11.35;64.35
64967;BME280;51710;38.732;-121.358;2023-04-01T05:08:36;101923.94;;;11.23;64.70
64967;BME280;51710;38.732;-121.358;2023-04-01T05:11:07;101921.25;;;11.14;64.60
64967;BME280;51710;38.732;-121.358;2023-04-01T05:13:36;101908.28;;;11.09;64.80
64967;BME280;51710;38.732;-121.358;2023-04-01T05:16:02;101920.06;;;11.07;65.14
64967;BME280;51710;38.732;-121.358;2023-04-01T05:18:28;101912.00;;;10.97;65.06
64967;BME280;51710;38.732;-121.358;2023-04-01T05:20:55;101900.44;;;10.87;64.72
64967;BME280;51710;38.732;-121.358;2023-04-01T05:23:22;101910.78;;;10.81;64.76
64967;BME280;51710;38.732;-121.358;2023-04-01T05:25:49;101905.69;;;10.78;65.70
64967;BME280;51710;38.732;-121.358;2023-04-01T05:28:16;101906.53;;;10.78;65.53
64967;BME280;51710;38.732;-121.358;2023-04-01T05:30:43;101905.94;;;10.75;65.55
64967;BME280;51710;38.732;-121.358;2023-04-01T05:33:11;101908.03;;;10.71;66.01
64967;BME280;51710;38.732;-121.358;2023-04-01T05:35:37;101909.97;;;10.69;65.88
64967;BME280;51710;38.732;-121.358;2023-04-01T05:38:04;101913.34;;;10.71;65.76
64967;BME280;51710;38.732;-121.358;2023-04-01T05:40:30;101908.75;;;10.73;66.33
64967;BME280;51710;38.732;-121.358;2023-04-01T05:42:57;101904.13;;;10.75;66.02
64967;BME280;51710;38.732;-121.358;2023-04-01T05:45:23;101903.09;;;10.67;66.28
64967;BME280;51710;38.732;-121.358;2023-04-01T05:47:49;101904.31;;;10.63;66.76
64967;BME280;51710;38.732;-121.358;2023-04-01T05:50:16;101905.28;;;10.62;67.49
64967;BME280;51710;38.732;-121.358;2023-04-01T05:52:42;101911.47;;;10.62;67.04
64967;BME280;51710;38.732;-121.358;2023-04-01T05:55:09;101916.53;;;10.65;67.04
64967;BME280;51710;38.732;-121.358;2023-04-01T05:57:35;101915.56;;;10.66;67.34
64967;BME280;51710;38.732;-121.358;2023-04-01T06:00:02;101911.91;;;10.67;67.34
64967;BME280;51710;38.732;-121.358;2023-04-01T06:02:28;101908.03;;;10.71;66.91
64967;BME280;51710;38.732;-121.358;2023-04-01T06:05:11;101916.47;;;10.76;67.17
64967;BME280;51710;38.732;-121.358;2023-04-01T06:07:38;101913.53;;;10.79;67.03
64967;BME280;51710;38.732;-121.358;2023-04-01T06:10:12;101917.34;;;10.77;66.76
64967;BME280;51710;38.732;-121.358;2023-04-01T06:12:56;101919.78;;;10.69;67.42
64967;BME280;51710;38.732;-121.358;2023-04-01T06:15:48;101918.03;;;10.58;67.00
64967;BME280;51710;38.732;-121.358;2023-04-01T06:18:38;101921.59;;;10.48;66.84
64967;BME280;51710;38.732;-121.358;2023-04-01T06:26:35;101908.47;;;10.13;68.54
64967;BME280;51710;38.732;-121.358;2023-04-01T06:40:04;101918.94;;;9.72;69.76
64967;BME280;51710;38.732;-121.358;2023-04-01T06:42:50;101921.25;;;9.65;70.03
64967;BME280;51710;38.732;-121.358;2023-04-01T06:51:47;101907.69;;;9.57;70.80
64967;BME280;51710;38.732;-121.358;2023-04-01T06:56:59;101917.38;;;9.47;70.88
64967;BME280;51710;38.732;-121.358;2023-04-01T06:59:32;101919.44;;;9.44;71.19
64967;BME280;51710;38.732;-121.358;2023-04-01T07:04:40;101899.13;;;9.43;70.95
64967;BME280;51710;38.732;-121.358;2023-04-01T07:07:54;101907.34;;;9.40;71.11
64967;BME280;51710;38.732;-121.358;2023-04-01T07:10:04;101913.88;;;9.36;71.18
64967;BME280;51710;38.732;-121.358;2023-04-01T07:15:01;101921.34;;;9.20;71.87
64967;BME280;51710;38.732;-121.358;2023-04-01T07:17:32;101925.56;;;9.11;72.07
64967;BME280;51710;38.732;-121.358;2023-04-01T07:22:56;101920.34;;;8.98;72.39
64967;BME280;51710;38.732;-121.358;2023-04-01T07:25:46;101931.44;;;8.92;72.80
64967;BME280;51710;38.732;-121.358;2023-04-01T07:28:15;101925.53;;;8.89;72.38
64967;BME280;51710;38.732;-121.358;2023-04-01T07:31:15;101925.84;;;8.84;72.98
64967;BME280;51710;38.732;-121.358;2023-04-01T07:36:59;101925.84;;;8.84;73.33
64967;BME280;51710;38.732;-121.358;2023-04-01T07:39:26;101922.25;;;8.85;73.15
64967;BME280;51710;38.732;-121.358;2023-04-01T07:47:28;101925.84;;;8.84;73.42
64967;BME280;51710;38.732;-121.358;2023-04-01T07:50:11;101924.91;;;8.85;73.20
64967;BME280;51710;38.732;-121.358;2023-04-01T08:12:06;101918.59;;;8.75;73.79
64967;BME280;51710;38.732;-121.358;2023-04-01T08:15:10;101925.09;;;8.71;74.16
64967;BME280;51710;38.732;-121.358;2023-04-01T08:17:39;101920.00;;;8.68;73.67
64967;BME280;51710;38.732;-121.358;2023-04-01T08:22:51;101921.66;;;8.58;73.74
64967;BME280;51710;38.732;-121.358;2023-04-01T08:25:25;101920.09;;;8.56;74.18
64967;BME280;51710;38.732;-121.358;2023-04-01T08:28:21;101921.16;;;8.53;74.10
64967;BME280;51710;38.732;-121.358;2023-04-01T08:31:01;101915.00;;;8.53;74.48
64967;BME280;51710;38.732;-121.358;2023-04-01T08:33:31;101921.16;;;8.53;74.35
64967;BME280;51710;38.732;-121.358;2023-04-01T08:36:15;101914.88;;;8.54;74.56
64967;BME280;51710;38.732;-121.358;2023-04-01T08:38:46;101924.31;;;8.58;74.50
64967;BME280;51710;38.732;-121.358;2023-04-01T08:47:31;101929.44;;;8.72;74.76
64967;BME280;51710;38.732;-121.358;2023-04-01T08:57:56;101923.13;;;8.62;74.98
64967;BME280;51710;38.732;-121.358;2023-04-01T09:03:31;101924.31;;;8.58;75.72
64967;BME280;51710;38.732;-121.358;2023-04-01T09:06:28;101939.25;;;8.48;74.74
64967;BME280;51710;38.732;-121.358;2023-04-01T09:09:17;101931.97;;;8.39;75.18
64967;BME280;51710;38.732;-121.358;2023-04-01T09:17:38;101945.91;;;8.18;76.00
64967;BME280;51710;38.732;-121.358;2023-04-01T09:20:25;101951.16;;;8.07;76.87
64967;BME280;51710;38.732;-121.358;2023-04-01T09:51:30;101945.69;;;8.91;77.37
64967;BME280;51710;38.732;-121.358;2023-04-01T10:02:35;101930.47;;;8.93;77.23
64967;BME280;51710;38.732;-121.358;2023-04-01T10:05:33;101929.97;;;8.88;77.15
64967;BME280;51710;38.732;-121.358;2023-04-01T10:25:34;101909.69;;;8.87;76.78
64967;BME280;51710;38.732;-121.358;2023-04-01T10:50:45;101876.69;;;8.79;77.04
64967;BME280;51710;38.732;-121.358;2023-04-01T10:59:36;101870.78;;;8.75;77.02
64967;BME280;51710;38.732;-121.358;2023-04-01T11:25:13;101863.78;;;8.74;76.50
64967;BME280;51710;38.732;-121.358;2023-04-01T11:46:56;101866.03;;;8.57;76.98
64967;BME280;51710;38.732;-121.358;2023-04-01T11:57:51;101861.97;;;8.29;77.25
64967;BME280;51710;38.732;-121.358;2023-04-01T12:03:46;101871.72;;;8.29;77.32
64967;BME280;51710;38.732;-121.358;2023-04-01T12:06:37;101865.78;;;8.25;77.25
64967;BME280;51710;38.732;-121.358;2023-04-01T12:17:39;101869.78;;;8.07;77.67
64967;BME280;51710;38.732;-121.358;2023-04-01T12:20:33;101866.53;;;8.04;77.69
64967;BME280;51710;38.732;-121.358;2023-04-01T12:28:57;101861.22;;;8.04;77.63
64967;BME280;51710;38.732;-121.358;2023-04-01T12:37:45;101855.13;;;8.14;78.26
64967;BME280;51710;38.732;-121.358;2023-04-01T12:46:00;101866.44;;;8.16;77.98
64967;BME280;51710;38.732;-121.358;2023-04-01T12:59:48;101863.53;;;8.08;78.53
64967;BME280;51710;38.732;-121.358;2023-04-01T13:02:44;101861.59;;;8.10;78.28
64967;BME280;51710;38.732;-121.358;2023-04-01T13:25:43;101884.16;;;7.92;78.25
64967;BME280;51710;38.732;-121.358;2023-04-01T13:36:16;101886.75;;;7.81;77.93
64967;BME280;51710;38.732;-121.358;2023-04-01T13:41:54;101890.34;;;7.80;78.55
64967;BME280;51710;38.732;-121.358;2023-04-01T13:44:41;101895.78;;;7.78;78.17
64967;BME280;51710;38.732;-121.358;2023-04-01T13:50:14;101892.50;;;7.75;78.54
64967;BME280;51710;38.732;-121.358;2023-04-01T14:12:09;101893.47;;;7.74;78.13
64967;BME280;51710;38.732;-121.358;2023-04-01T14:31:14;101917.31;;;8.10;77.98
64967;BME280;51710;38.732;-121.358;2023-04-01T14:33:58;101926.94;;;8.11;77.69
64967;BME280;51710;38.732;-121.358;2023-04-01T14:43:10;101928.31;;;8.29;78.13
64967;BME280;51710;38.732;-121.358;2023-04-01T14:48:38;101936.84;;;8.45;78.16
64967;BME280;51710;38.732;-121.358;2023-04-01T14:56:41;101926.34;;;8.78;77.99
64967;BME280;51710;38.732;-121.358;2023-04-01T14:59:28;101937.09;;;8.88;77.84
64967;BME280;51710;38.732;-121.358;2023-04-01T15:04:47;101927.50;;;9.09;77.70
64967;BME280;51710;38.732;-121.358;2023-04-01T15:07:52;101925.69;;;9.21;77.18
64967;BME280;51710;38.732;-121.358;2023-04-01T15:16:57;101921.38;;;9.64;76.49
64967;BME280;51710;38.732;-121.358;2023-04-01T15:20:02;101925.47;;;9.79;76.45
64967;BME280;51710;38.732;-121.358;2023-04-01T15:22:48;101921.56;;;9.94;76.35
64967;BME280;51710;38.732;-121.358;2023-04-01T15:36:56;101916.66;;;10.64;74.56
64967;BME280;51710;38.732;-121.358;2023-04-01T15:39:27;101913.81;;;10.76;73.30
64967;BME280;51710;38.732;-121.358;2023-04-01T15:42:19;101914.03;;;10.84;72.67
64967;BME280;51710;38.732;-121.358;2023-04-01T15:53:10;101919.47;;;11.24;72.01
64967;BME280;51710;38.732;-121.358;2023-04-01T16:01:48;101912.16;;;11.56;70.48
64967;BME280;51710;38.732;-121.358;2023-04-01T16:04:46;101917.13;;;11.61;69.38
64967;BME280;51710;38.732;-121.358;2023-04-01T16:07:42;101916.44;;;11.68;69.98
64967;BME280;51710;38.732;-121.358;2023-04-01T16:21:49;101968.28;;;11.96;67.66
64967;BME280;51710;38.732;-121.358;2023-04-01T16:26:59;101961.78;;;11.89;68.26
64967;BME280;51710;38.732;-121.358;2023-04-01T16:29:53;101968.84;;;11.99;67.31
64967;BME280;51710;38.732;-121.358;2023-04-01T16:32:36;101973.91;;;12.02;66.90
64967;BME280;51710;38.732;-121.358;2023-04-01T16:43:24;101965.69;;;12.34;66.10
64967;BME280;51710;38.732;-121.358;2023-04-01T16:46:06;101963.03;;;12.43;66.05
64967;BME280;51710;38.732;-121.358;2023-04-01T16:57:21;101973.16;;;12.78;64.00
64967;BME280;51710;38.732;-121.358;2023-04-01T17:02:38;101975.00;;;12.87;63.93
64967;BME280;51710;38.732;-121.358;2023-04-01T17:05:11;101969.25;;;12.92;63.88
64967;BME280;51710;38.732;-121.358;2023-04-01T17:07:57;101982.88;;;12.98;63.55
64967;BME280;51710;38.732;-121.358;2023-04-01T17:26:46;101967.22;;;13.41;61.98
64967;BME280;51710;38.732;-121.358;2023-04-01T17:32:34;101963.63;;;13.60;60.98
64967;BME280;51710;38.732;-121.358;2023-04-01T17:35:02;101984.31;;;13.68;61.23
64967;BME280;51710;38.732;-121.358;2023-04-01T17:43:28;101970.16;;;13.85;60.53
64967;BME280;51710;38.732;-121.358;2023-04-01T17:45:53;101965.75;;;13.93;59.93
64967;BME280;51710;38.732;-121.358;2023-04-01T17:51:23;101970.91;;;14.04;59.62
64967;BME280;51710;38.732;-121.358;2023-04-01T17:56:59;101971.38;;;14.27;59.42
64967;BME280;51710;38.732;-121.358;2023-04-01T18:00:33;101969.47;;;14.37;59.31
64967;BME280;51710;38.732;-121.358;2023-04-01T18:02:55;101982.84;;;14.46;58.79
64967;BME280;51710;38.732;-121.358;2023-04-01T18:13:46;101987.59;;;14.70;57.98
64967;BME280;51710;38.732;-121.358;2023-04-01T18:22:00;101962.81;;;15.11;57.07
64967;BME280;51710;38.732;-121.358;2023-04-01T18:27:17;101965.91;;;15.42;55.17
64967;BME280;51710;38.732;-121.358;2023-04-01T18:29:54;101961.59;;;15.49;55.21
64967;BME280;51710;38.732;-121.358;2023-04-01T18:32:36;101954.59;;;15.56;55.05
64967;BME280;51710;38.732;-121.358;2023-04-01T18:37:59;101955.06;;;15.85;53.55
64967;BME280;51710;38.732;-121.358;2023-04-01T18:40:34;101948.41;;;15.97;54.66
64967;BME280;51710;38.732;-121.358;2023-04-01T18:43:12;101944.44;;;16.17;54.19
64967;BME280;51710;38.732;-121.358;2023-04-01T18:45:59;101944.81;;;16.30;54.18
64967;BME280;51710;38.732;-121.358;2023-04-01T18:53:56;101946.78;;;16.86;52.72
64967;BME280;51710;38.732;-121.358;2023-04-01T18:56:32;101947.63;;;17.03;52.18
64967;BME280;51710;38.732;-121.358;2023-04-01T18:59:08;101939.53;;;17.19;51.92
64967;BME280;51710;38.732;-121.358;2023-04-01T19:01:40;101942.38;;;17.33;51.76
64967;BME280;51710;38.732;-121.358;2023-04-01T19:04:21;101939.00;;;17.55;50.51
64967;BME280;51710;38.732;-121.358;2023-04-01T19:06:55;101932.59;;;17.56;49.82
64967;BME280;51710;38.732;-121.358;2023-04-01T19:09:52;101935.59;;;17.61;50.69
64967;BME280;51710;38.732;-121.358;2023-04-01T19:15:11;101934.88;;;17.75;49.88
64967;BME280;51710;38.732;-121.358;2023-04-01T19:25:48;101922.44;;;18.05;48.17
64967;BME280;51710;38.732;-121.358;2023-04-01T19:28:47;101926.72;;;17.91;47.77
64967;BME280;51710;38.732;-121.358;2023-04-01T19:34:17;101920.97;;;17.94;48.27
64967;BME280;51710;38.732;-121.358;2023-04-01T19:36:47;101911.66;;;18.05;48.79
64967;BME280;51710;38.732;-121.358;2023-04-01T19:39:39;101919.19;;;18.18;48.07
64967;BME280;51710;38.732;-121.358;2023-04-01T19:42:39;101907.03;;;18.22;48.19
64967;BME280;51710;38.732;-121.358;2023-04-01T19:45:31;101898.94;;;18.22;47.58
64967;BME280;51710;38.732;-121.358;2023-04-01T19:51:46;101901.41;;;18.31;48.35
64967;BME280;51710;38.732;-121.358;2023-04-01T19:56:51;101888.59;;;18.56;48.71
64967;BME280;51710;38.732;-121.358;2023-04-01T19:59:30;101880.09;;;18.67;48.46
64967;BME280;51710;38.732;-121.358;2023-04-01T20:04:53;101870.09;;;18.90;48.50
64967;BME280;51710;38.732;-121.358;2023-04-01T20:10:29;101869.13;;;18.83;47.91
64967;BME280;51710;38.732;-121.358;2023-04-01T20:18:05;101867.22;;;18.91;48.13
64967;BME280;51710;38.732;-121.358;2023-04-01T20:20:37;101868.66;;;19.17;48.19
64967;BME280;51710;38.732;-121.358;2023-04-01T20:23:47;101850.44;;;19.33;47.47
64967;BME280;51710;38.732;-121.358;2023-04-01T20:26:29;101849.28;;;19.42;46.31
64967;BME280;51710;38.732;-121.358;2023-04-01T20:29:34;101840.56;;;19.40;47.20
64967;BME280;51710;38.732;-121.358;2023-04-01T20:35:19;101837.88;;;19.40;47.29
64967;BME280;51710;38.732;-121.358;2023-04-01T20:38:35;101834.66;;;19.51;47.17
64967;BME280;51710;38.732;-121.358;2023-04-01T20:44:04;101829.53;;;19.27;47.07
64967;BME280;51710;38.732;-121.358;2023-04-01T20:57:31;101815.78;;;19.87;46.26
64967;BME280;51710;38.732;-121.358;2023-04-01T21:06:27;101799.31;;;20.03;46.29
64967;BME280;51710;38.732;-121.358;2023-04-01T21:15:03;101789.50;;;20.38;46.50
64967;BME280;51710;38.732;-121.358;2023-04-01T21:17:22;101775.81;;;20.25;45.62
64967;BME280;51710;38.732;-121.358;2023-04-01T21:23:01;101777.94;;;20.08;45.32
64967;BME280;51710;38.732;-121.358;2023-04-01T21:25:37;101773.47;;;20.00;45.90
64967;BME280;51710;38.732;-121.358;2023-04-01T21:28:34;101766.03;;;20.02;45.61
64967;BME280;51710;38.732;-121.358;2023-04-01T21:31:08;101762.16;;;19.90;46.17
64967;BME280;51710;38.732;-121.358;2023-04-01T21:50:15;101718.63;;;20.06;46.45
64967;BME280;51710;38.732;-121.358;2023-04-01T22:01:43;101719.91;;;19.68;46.48
64967;BME280;51710;38.732;-121.358;2023-04-01T22:10:15;101718.16;;;19.61;46.82
64967;BME280;51710;38.732;-121.358;2023-04-01T22:12:47;101715.28;;;19.62;47.27
64967;BME280;51710;38.732;-121.358;2023-04-01T22:18:42;101716.13;;;19.63;47.14
64967;BME280;51710;38.732;-121.358;2023-04-01T22:31:52;101697.47;;;19.89;47.65
64967;BME280;51710;38.732;-121.358;2023-04-01T22:37:31;101700.06;;;20.03;47.14
64967;BME280;51710;38.732;-121.358;2023-04-01T22:43:06;101693.19;;;19.59;47.85
64967;BME280;51710;38.732;-121.358;2023-04-01T22:45:49;101680.72;;;19.58;48.52
64967;BME280;51710;38.732;-121.358;2023-04-01T22:56:12;101673.16;;;20.17;48.29
64967;BME280;51710;38.732;-121.358;2023-04-01T22:58:54;101661.00;;;20.34;48.57
64967;BME280;51710;38.732;-121.358;2023-04-01T23:01:28;101659.47;;;20.52;47.59